createdAt,value
2018-08-19T00:46:08.395Z,6.60
2018-08-19T00:51:11.726Z,5.70
2018-08-19T00:56:22.394Z,6.23
2018-08-19T02:33:28.193Z,7.67
2018-08-19T02:38:31.536Z,8.73
2018-08-19T02:43:35.647Z,7.77
2018-08-19T03:46:10.478Z,8.00
2018-08-19T03:51:13.813Z,8.87
2018-08-19T03:56:17.143Z,9.57
2018-08-19T05:04:35.824Z,8.80
2018-08-19T05:09:39.162Z,9.53
2018-08-19T05:14:52.140Z,8.93
2018-08-19T05:19:55.487Z,9.50
2018-08-19T05:24:58.823Z,9.63
2018-08-19T05:30:02.150Z,9.43
2018-08-19T05:35:06.250Z,9.30
2018-08-19T05:40:09.647Z,8.33
2018-08-19T05:45:12.988Z,9.20
2018-08-19T05:50:16.314Z,8.07
2018-08-19T05:55:24.224Z,8.70
2018-08-19T06:00:27.539Z,10.10
2018-08-19T06:05:31.650Z,9.70
2018-08-19T06:10:34.978Z,7.17
2018-08-19T06:15:38.302Z,6.03
2018-08-19T06:20:42.411Z,10.67
2018-08-19T06:25:45.756Z,10.10
2018-08-19T06:30:49.090Z,10.40
2018-08-19T06:35:52.431Z,9.47
2018-08-19T06:40:55.766Z,10.47
2018-08-19T06:46:06.305Z,9.47
2018-08-19T06:51:09.660Z,9.70
2018-08-19T06:56:12.979Z,7.30
2018-08-19T07:01:16.321Z,10.17
2018-08-19T07:06:20.423Z,10.90
2018-08-19T07:11:23.753Z,9.30
2018-08-19T07:16:27.880Z,9.77
2018-08-19T07:21:31.983Z,9.10
2018-08-19T07:26:46.097Z,9.60
2018-08-19T07:31:49.818Z,9.67
2018-08-19T07:36:53.632Z,9.60
2018-08-19T07:41:58.185Z,9.43
2018-08-19T07:47:02.110Z,9.53
2018-08-19T07:52:05.721Z,8.10
2018-08-19T07:57:09.264Z,7.37
2018-08-19T08:02:14.180Z,8.80
2018-08-19T08:07:17.743Z,6.73
2018-08-19T08:12:21.423Z,7.23
2018-08-19T08:17:26.516Z,7.17
2018-08-19T08:22:30.111Z,7.13
2018-08-19T08:27:33.838Z,7.60
2018-08-19T08:32:37.408Z,5.67
2018-08-19T08:37:41.103Z,7.17
2018-08-19T08:42:44.795Z,6.63
2018-08-19T08:47:48.561Z,5.80
2018-08-19T08:52:52.245Z,5.90
2018-08-19T08:57:55.840Z,5.83
2018-08-19T09:02:59.477Z,4.10
2018-08-19T09:08:03.113Z,5.10
2018-08-19T09:13:06.686Z,5.00
2018-08-19T09:18:10.333Z,5.03
2018-08-19T09:23:14.054Z,4.27
2018-08-19T09:28:17.628Z,4.10
2018-08-19T09:33:21.196Z,4.30
2018-08-19T09:38:24.531Z,4.60
2018-08-19T09:43:27.875Z,4.83
2018-08-19T09:48:31.343Z,4.20
2018-08-19T09:53:34.672Z,4.40
2018-08-19T09:58:38.003Z,4.23
2018-08-19T10:03:41.344Z,4.43
2018-08-19T10:08:45.433Z,4.30
2018-08-19T10:13:48.767Z,3.90
2018-08-19T10:18:52.350Z,3.60
2018-08-19T10:23:55.689Z,4.47
2018-08-19T10:28:59.018Z,3.47
2018-08-19T10:38:40.553Z,4.30
2018-08-19T10:43:43.998Z,4.40
2018-08-19T10:48:47.651Z,4.43
2018-08-19T10:53:50.989Z,3.67
2018-08-19T10:58:54.322Z,3.40
2018-08-19T11:03:58.423Z,4.10
2018-08-19T11:09:01.768Z,2.70
2018-08-19T11:14:05.861Z,4.03
2018-08-19T11:19:09.187Z,4.30
2018-08-19T11:24:12.512Z,3.30
2018-08-19T11:29:15.838Z,3.30
2018-08-19T11:34:19.163Z,2.53
2018-08-19T11:39:22.514Z,3.70
2018-08-19T11:44:25.831Z,4.20
2018-08-19T11:49:29.171Z,3.70
2018-08-19T11:54:33.275Z,3.07
2018-08-19T11:59:36.607Z,3.70
2018-08-19T12:04:41.392Z,2.90
2018-08-19T12:09:45.139Z,2.87
2018-08-19T12:14:49.321Z,4.30
2018-08-19T12:19:53.610Z,3.53
2018-08-19T12:24:57.211Z,4.40
2018-08-19T12:30:00.743Z,3.53
2018-08-19T12:35:05.090Z,3.50
2018-08-19T12:40:08.445Z,2.87
2018-08-19T12:45:12.535Z,3.50
2018-08-19T12:50:15.904Z,3.23
2018-08-19T12:55:19.228Z,2.70
2018-08-19T13:00:22.568Z,2.87
2018-08-19T13:05:25.890Z,2.30
2018-08-19T13:10:29.222Z,2.78
2018-08-19T13:15:32.568Z,2.72
2018-08-19T13:20:35.920Z,2.40
2018-08-19T13:25:39.253Z,2.65
2018-08-19T13:30:42.652Z,3.00
2018-08-19T13:35:46.234Z,2.30
2018-08-19T13:40:49.824Z,2.97
2018-08-19T13:45:55.167Z,2.80
2018-08-19T13:50:58.582Z,2.95
2018-08-19T13:56:02.053Z,3.40
2018-08-19T14:01:05.501Z,3.30
2018-08-19T14:06:09.073Z,3.28
2018-08-19T14:11:13.515Z,2.20
2018-08-19T14:16:30.211Z,3.03
2018-08-19T14:21:34.720Z,2.45
2018-08-19T14:26:38.185Z,2.20
2018-08-19T14:31:42.393Z,2.35
2018-08-19T14:36:45.869Z,2.83
2018-08-19T14:41:49.270Z,3.20
2018-08-19T14:46:52.641Z,2.72
2018-08-19T14:51:56.860Z,2.72
2018-08-19T14:57:00.503Z,2.10
2018-08-19T15:02:04.605Z,2.70
2018-08-19T15:07:07.934Z,2.37
2018-08-19T15:12:11.293Z,3.15
2018-08-19T15:17:14.641Z,2.20
2018-08-19T15:45:04.071Z,2.95
2018-08-19T15:50:11.386Z,2.55
2018-08-19T15:55:14.720Z,2.30
2018-08-19T16:00:18.398Z,3.00
2018-08-19T16:05:21.747Z,2.67
2018-08-19T16:10:25.086Z,2.53
2018-08-19T16:15:28.421Z,2.40
2018-08-19T16:20:31.767Z,2.45
2018-08-19T16:26:06.073Z,2.85
2018-08-19T16:31:09.476Z,3.12
2018-08-19T16:36:12.851Z,2.90
2018-08-19T16:41:17.526Z,2.62
2018-08-19T16:46:25.276Z,2.42
2018-08-19T16:51:28.614Z,2.80
2018-08-19T16:56:31.990Z,2.30
2018-08-19T17:01:35.379Z,2.83
2018-08-19T17:06:41.402Z,2.83
2018-08-19T17:11:44.738Z,2.70
2018-08-19T17:16:48.073Z,2.53
2018-08-19T17:21:52.168Z,2.50
2018-08-19T17:26:55.522Z,3.30
2018-08-19T17:31:59.602Z,3.40
2018-08-19T17:37:02.944Z,3.85
2018-08-19T17:42:06.347Z,2.75
2018-08-19T17:47:10.481Z,3.20
2018-08-19T17:52:13.863Z,3.40
2018-08-19T17:57:17.208Z,3.47
2018-08-19T18:02:20.523Z,2.78
2018-08-19T18:07:23.863Z,2.90
2018-08-19T18:12:27.194Z,2.92
2018-08-19T18:17:30.547Z,4.70
2018-08-19T18:22:33.882Z,3.80
2018-08-19T18:27:37.220Z,3.33
2018-08-19T18:32:40.555Z,3.30
2018-08-19T18:37:43.890Z,3.53
2018-08-19T18:42:47.234Z,2.55
2018-08-19T18:47:51.336Z,3.20
2018-08-19T18:52:54.666Z,3.40
2018-08-19T18:57:57.995Z,2.65
2018-08-19T19:03:02.088Z,2.78
2018-08-19T19:08:05.446Z,2.80
2018-08-19T19:13:08.762Z,3.20
2018-08-19T19:18:12.874Z,2.65
2018-08-19T19:23:16.273Z,3.78
2018-08-19T19:28:19.603Z,3.67
2018-08-19T19:33:22.931Z,3.40
2018-08-19T19:38:26.266Z,3.83
2018-08-19T19:43:29.590Z,3.97
2018-08-19T19:48:32.925Z,3.57
2018-08-19T19:53:36.298Z,3.80
2018-08-19T19:58:39.638Z,3.37
2018-08-19T20:03:42.957Z,3.50
2018-08-19T20:08:46.298Z,4.80
2018-08-19T20:13:49.629Z,4.50
2018-08-19T20:18:52.964Z,4.20
2018-08-19T20:23:56.316Z,4.23
2018-08-19T20:28:59.665Z,4.20
2018-08-19T20:34:03.833Z,4.97
2018-08-19T20:39:07.163Z,4.17
2018-08-19T20:44:10.504Z,3.87
2018-08-19T20:49:13.874Z,4.40
2018-08-19T20:54:17.198Z,4.37
2018-08-19T20:59:20.539Z,4.57
2018-08-19T21:04:24.026Z,4.70
2018-08-19T21:09:27.350Z,4.90
2018-08-19T21:14:30.759Z,3.80
